Time;durP1;ratioP1;P1;durP2;ratioP2;P2;SDS_P1;SDS_P2;PMS_P1;PMS_P2;Temp;Humidity;BMP_temperature;BMP_pressure;BME280_temperature;BME280_humidity;BME280_pressure;Samples;Min_cycle;Max_cycle;Signal;HPM_P1;HPM_P2
2022/04/06 00:00:34;;;;;;;16.70;3.60;;;;;;;;;;5058151;28;20604;-62
2022/04/06 00:03:00;;;;;;;14.05;3.90;;;;;;;;;;5059323;28;20073;-62
2022/04/06 00:05:29;;;;;;;10.07;3.83;;;;;;;;;;5055430;28;20143;-62
2022/04/06 00:07:55;;;;;;;11.50;3.85;;;;;;;;;;5055209;28;20103;-62
2022/04/06 00:10:22;;;;;;;12.03;3.57;;;;;;;;;;5058231;28;20076;-62
2022/04/06 00:12:55;;;;;;;9.73;3.80;;;;;;;;;;5057671;28;20128;-62
2022/04/06 00:15:21;;;;;;;14.20;3.83;;;;;;;;;;5043461;28;20569;-62
2022/04/06 00:17:48;;;;;;;6.72;3.63;;;;;;;;;;5059366;28;20091;-62
2022/04/06 00:20:21;;;;;;;11.43;4.40;;;;;;;;;;5057913;28;20068;-62
2022/04/06 00:22:47;;;;;;;7.40;2.97;;;;;;;;;;5055747;28;20186;-62
2022/04/06 00:25:14;;;;;;;11.02;4.25;;;;;;;;;;5059296;28;20077;-62
2022/04/06 00:27:41;;;;;;;9.02;3.15;;;;;;;;;;5059111;28;20135;-62
2022/04/06 00:30:07;;;;;;;11.18;3.33;;;;;;;;;;5058295;28;20088;-62
2022/04/06 00:32:34;;;;;;;7.00;2.83;;;;;;;;;;5059175;28;20126;-62
2022/04/06 00:37:45;;;;;;;10.05;4.05;;;;;;;;;;5062064;28;20079;-62
2022/04/06 00:40:15;;;;;;;17.42;3.90;;;;;;;;;;5062066;28;20135;-62
2022/04/06 00:42:41;;;;;;;12.60;4.20;;;;;;;;;;5062548;28;20619;-62
2022/04/06 00:45:08;;;;;;;8.98;2.85;;;;;;;;;;5063075;28;20121;-62
2022/04/06 00:47:35;;;;;;;15.02;3.90;;;;;;;;;;5058086;28;20088;-61
2022/04/06 00:50:01;;;;;;;17.50;4.30;;;;;;;;;;5049101;28;20148;-62
2022/04/06 00:52:29;;;;;;;11.68;3.45;;;;;;;;;;5042700;28;20091;-62
2022/04/06 00:54:55;;;;;;;12.57;4.13;;;;;;;;;;5046675;28;20152;-62
2022/04/06 00:57:22;;;;;;;12.07;3.90;;;;;;;;;;5039753;28;20051;-62
2022/04/06 00:59:55;;;;;;;15.75;3.72;;;;;;;;;;5043351;28;20071;-62
2022/04/06 01:02:24;;;;;;;15.85;4.15;;;;;;;;;;5046560;28;20452;-62
2022/04/06 01:04:51;;;;;;;10.27;4.00;;;;;;;;;;5042167;28;20063;-62
2022/04/06 01:07:19;;;;;;;14.98;4.05;;;;;;;;;;5042019;28;20128;-62
2022/04/06 01:09:48;;;;;;;14.90;3.63;;;;;;;;;;5043239;28;20587;-61
2022/04/06 01:12:15;;;;;;;19.90;4.55;;;;;;;;;;5040005;28;20144;-62
2022/04/06 01:14:41;;;;;;;16.23;3.47;;;;;;;;;;5042672;28;20072;-62
2022/04/06 01:17:08;;;;;;;13.77;3.88;;;;;;;;;;5040456;28;20134;-62
2022/04/06 01:19:36;;;;;;;15.93;3.85;;;;;;;;;;5031446;28;20048;-62
2022/04/06 01:22:10;;;;;;;12.00;4.20;;;;;;;;;;5039264;28;20136;-62
2022/04/06 01:24:37;;;;;;;12.32;4.20;;;;;;;;;;5040151;28;20477;-62
2022/04/06 01:27:03;;;;;;;12.32;4.05;;;;;;;;;;5040535;28;20045;-61
2022/04/06 01:29:30;;;;;;;10.85;2.58;;;;;;;;;;5039027;28;20467;-62
2022/04/06 01:32:10;;;;;;;12.63;4.55;;;;;;;;;;5041578;28;20068;-61
2022/04/06 01:34:36;;;;;;;10.07;4.28;;;;;;;;;;5040258;28;20057;-62
2022/04/06 01:37:04;;;;;;;10.38;3.90;;;;;;;;;;5042927;28;20511;-61
2022/04/06 01:39:31;;;;;;;12.27;4.20;;;;;;;;;;5041519;28;20084;-62
2022/04/06 01:41:58;;;;;;;;;;;;;;;;;;5038415;28;20089;-62
2022/04/06 01:44:25;;;;;;;20.02;4.10;;;;;;;;;;5038269;28;20003;-62
2022/04/06 01:46:51;;;;;;;10.10;3.20;;;;;;;;;;5036921;28;20612;-62
2022/04/06 01:52:12;;;;;;;12.25;4.10;;;;;;;;;;5057860;28;20080;-62
2022/04/06 01:54:39;;;;;;;11.38;4.13;;;;;;;;;;5062344;28;20049;-62
2022/04/06 01:57:05;;;;;;;9.95;4.13;;;;;;;;;;5054730;28;20127;-62
2022/04/06 01:59:32;;;;;;;19.10;5.47;;;;;;;;;;5058749;28;20159;-62
2022/04/06 02:01:58;;;;;;;20.58;4.82;;;;;;;;;;5062091;28;20138;-62
2022/04/06 02:04:32;;;;;;;13.87;4.63;;;;;;;;;;5056166;28;20049;-62
2022/04/06 02:06:59;;;;;;;19.10;5.53;;;;;;;;;;5057928;28;20106;-62
2022/04/06 02:09:25;;;;;;;17.60;4.38;;;;;;;;;;5061204;28;20128;-62
2022/04/06 02:11:58;;;;;;;14.43;4.72;;;;;;;;;;5061874;28;20542;-62
2022/04/06 02:14:26;;;;;;;20.63;4.78;;;;;;;;;;5060619;28;20547;-62
2022/04/06 02:16:52;;;;;;;;;;;;;;;;;;5061370;28;20080;-62
2022/04/06 02:19:26;;;;;;;10.38;4.60;;;;;;;;;;5060852;28;19925;-62
2022/04/06 02:21:52;;;;;;;17.80;4.47;;;;;;;;;;5058312;28;20132;-62
2022/04/06 02:24:19;;;;;;;17.80;4.93;;;;;;;;;;5060594;28;20052;-62
2022/04/06 02:26:46;;;;;;;12.95;3.95;;;;;;;;;;5062512;28;20076;-62
2022/04/06 02:29:12;;;;;;;11.87;4.53;;;;;;;;;;5060207;28;20119;-62
2022/04/06 02:31:39;;;;;;;14.73;5.27;;;;;;;;;;5061964;28;20087;-62
2022/04/06 02:34:13;;;;;;;14.02;4.95;;;;;;;;;;5059282;28;20512;-62
2022/04/06 02:36:39;;;;;;;12.50;4.50;;;;;;;;;;5057972;28;20127;-62
2022/04/06 02:39:06;;;;;;;15.93;5.63;;;;;;;;;;5057973;28;20120;-62
2022/04/06 02:41:35;;;;;;;22.83;5.43;;;;;;;;;;5061013;28;20118;-62
2022/04/06 02:44:01;;;;;;;17.40;5.87;;;;;;;;;;5058967;28;20123;-62
2022/04/06 02:46:28;;;;;;;19.63;6.05;;;;;;;;;;5058017;28;20088;-62
2022/04/06 02:48:56;;;;;;;13.55;5.68;;;;;;;;;;5056548;28;20653;-62
2022/04/06 02:51:22;;;;;;;16.80;6.30;;;;;;;;;;5035390;28;20165;-62
2022/04/06 02:53:49;;;;;;;18.83;5.93;;;;;;;;;;5040487;28;20148;-62
2022/04/06 02:56:15;;;;;;;16.80;5.10;;;;;;;;;;5036408;28;20132;-62
2022/04/06 02:58:42;;;;;;;28.05;6.25;;;;;;;;;;5036446;28;20644;-62
2022/04/06 03:01:08;;;;;;;18.95;6.50;;;;;;;;;;5040979;28;20132;-62
2022/04/06 03:03:40;;;;;;;18.63;6.45;;;;;;;;;;5038850;28;20049;-62
2022/04/06 03:06:07;;;;;;;23.92;6.30;;;;;;;;;;5042844;28;20133;-62
2022/04/06 03:08:34;;;;;;;22.08;7.30;;;;;;;;;;5039119;28;20564;-62
2022/04/06 03:11:01;;;;;;;24.88;7.05;;;;;;;;;;5040894;28;20512;-62
2022/04/06 03:13:27;;;;;;;13.93;5.47;;;;;;;;;;5036949;28;20133;-62
2022/04/06 03:15:55;;;;;;;17.58;6.78;;;;;;;;;;5040198;28;20334;-62
2022/04/06 03:18:22;;;;;;;19.67;7.30;;;;;;;;;;5038771;28;20053;-62
2022/04/06 03:20:49;;;;;;;17.65;7.15;;;;;;;;;;5035995;28;20112;-62
2022/04/06 03:23:15;;;;;;;18.60;7.05;;;;;;;;;;5039153;28;20145;-62
2022/04/06 03:25:43;;;;;;;;;;;;;;;;;;5041355;28;20099;-62
2022/04/06 03:28:09;;;;;;;18.55;6.80;;;;;;;;;;5037215;28;19956;-62
2022/04/06 03:30:36;;;;;;;23.73;6.45;;;;;;;;;;5035480;28;20123;-62
2022/04/06 03:33:03;;;;;;;19.83;6.85;;;;;;;;;;5043635;28;20136;-62
2022/04/06 03:35:29;;;;;;;25.80;7.00;;;;;;;;;;5038175;28;20057;-62
2022/04/06 03:37:56;;;;;;;20.27;6.00;;;;;;;;;;5037676;28;20410;-62
2022/04/06 03:40:29;;;;;;;17.35;6.70;;;;;;;;;;5041474;28;20568;-62
2022/04/06 03:42:56;;;;;;;23.45;6.15;;;;;;;;;;5039832;28;20131;-62
2022/04/06 03:45:22;;;;;;;18.30;5.53;;;;;;;;;;5036197;28;20156;-61
2022/04/06 03:47:52;;;;;;;17.05;4.75;;;;;;;;;;5037601;28;20575;-62
2022/04/06 03:50:19;;;;;;;18.00;5.97;;;;;;;;;;5052234;28;20144;-62
2022/04/06 03:52:45;;;;;;;12.95;4.97;;;;;;;;;;5057720;28;20106;-62
2022/04/06 03:55:12;;;;;;;21.33;5.53;;;;;;;;;;5060420;28;20080;-63
2022/04/06 03:57:39;;;;;;;18.30;5.73;;;;;;;;;;5053417;28;20048;-61
2022/04/06 04:00:06;;;;;;;11.30;5.28;;;;;;;;;;5058126;28;20480;-62
2022/04/06 04:02:32;;;;;;;16.25;4.47;;;;;;;;;;5057392;28;20084;-62
2022/04/06 04:05:00;;;;;;;15.38;5.22;;;;;;;;;;5058714;28;20049;-62
2022/04/06 04:07:26;;;;;;;;;;;;;;;;;;5057748;28;20089;-62
2022/04/06 04:09:53;;;;;;;19.75;5.80;;;;;;;;;;5047780;28;20035;-62
2022/04/06 04:12:19;;;;;;;11.82;4.45;;;;;;;;;;5062778;28;20080;-62
2022/04/06 04:14:46;;;;;;;13.48;4.20;;;;;;;;;;5063467;28;20055;-63
2022/04/06 04:17:19;;;;;;;12.55;4.75;;;;;;;;;;5060548;28;20073;-62
2022/04/06 04:19:45;;;;;;;13.27;4.15;;;;;;;;;;5063245;28;20084;-62
2022/04/06 04:22:12;;;;;;;14.38;3.67;;;;;;;;;;5060583;28;20052;-63
2022/04/06 04:24:45;;;;;;;17.92;4.50;;;;;;;;;;5062611;28;20076;-62
2022/04/06 04:27:11;;;;;;;15.75;5.15;;;;;;;;;;5061264;28;20144;-63
2022/04/06 04:29:38;;;;;;;10.18;4.47;;;;;;;;;;5058055;28;20139;-62
2022/04/06 04:32:17;;;;;;;13.27;4.30;;;;;;;;;;5062362;28;20151;-63
2022/04/06 04:34:44;;;;;;;7.38;3.40;;;;;;;;;;5060227;28;20152;-62
2022/04/06 04:37:10;;;;;;;8.32;3.90;;;;;;;;;;5060712;28;20091;-62
2022/04/06 04:39:44;;;;;;;14.18;4.78;;;;;;;;;;5067221;28;20531;-62
2022/04/06 04:42:10;;;;;;;15.73;4.88;;;;;;;;;;5063272;28;20539;-63
2022/04/06 04:44:37;;;;;;;9.45;4.43;;;;;;;;;;5061924;28;20123;-63
2022/04/06 04:47:04;;;;;;;17.63;5.07;;;;;;;;;;5060609;28;20053;-62
2022/04/06 04:49:30;;;;;;;13.97;3.47;;;;;;;;;;5058344;28;20060;-62
2022/04/06 04:51:58;;;;;;;10.50;3.85;;;;;;;;;;5060125;28;20113;-62
2022/04/06 04:54:24;;;;;;;16.30;4.70;;;;;;;;;;5060061;28;20071;-63
2022/04/06 04:56:55;;;;;;;20.80;4.53;;;;;;;;;;5058870;28;20484;-63
2022/04/06 04:59:21;;;;;;;11.10;4.60;;;;;;;;;;5058235;28;20158;-63
2022/04/06 05:01:49;;;;;;;9.98;4.22;;;;;;;;;;5058194;28;20639;-63
2022/04/06 05:04:15;;;;;;;17.00;4.75;;;;;;;;;;5056485;28;20193;-63
2022/04/06 05:06:43;;;;;;;12.48;3.83;;;;;;;;;;5055303;28;20052;-63
2022/04/06 05:09:12;;;;;;;8.30;3.28;;;;;;;;;;5058250;28;20195;-63
2022/04/06 05:11:38;;;;;;;17.42;3.53;;;;;;;;;;5056544;28;20187;-63
2022/04/06 05:14:05;;;;;;;8.43;3.03;;;;;;;;;;5059427;28;20171;-63
2022/04/06 05:16:31;;;;;;;14.50;4.65;;;;;;;;;;5056612;28;20044;-63
2022/04/06 05:18:58;;;;;;;10.82;5.00;;;;;;;;;;5060754;28;20049;-63
2022/04/06 05:21:29;;;;;;;13.90;4.80;;;;;;;;;;5060961;28;20136;-63
2022/04/06 05:23:57;;;;;;;11.02;3.30;;;;;;;;;;5059333;28;20045;-63
2022/04/06 05:26:23;;;;;;;12.32;4.65;;;;;;;;;;5058748;28;20127;-63
2022/04/06 05:28:57;;;;;;;12.73;4.57;;;;;;;;;;5060450;28;20164;-63
2022/04/06 05:31:23;;;;;;;14.75;4.22;;;;;;;;;;5057128;28;20587;-63
2022/04/06 05:33:50;;;;;;;23.23;4.55;;;;;;;;;;5055807;28;20084;-63
2022/04/06 05:36:18;;;;;;;17.52;4.22;;;;;;;;;;5058283;28;20090;-64
2022/04/06 05:38:44;;;;;;;7.35;3.67;;;;;;;;;;5059364;28;20144;-63
2022/04/06 05:41:11;;;;;;;14.73;4.78;;;;;;;;;;5061796;28;20151;-63
2022/04/06 05:43:44;;;;;;;19.08;4.57;;;;;;;;;;5057038;28;20156;-63
2022/04/06 05:46:10;;;;;;;10.40;4.32;;;;;;;;;;5056567;28;20044;-64
2022/04/06 05:48:37;;;;;;;15.60;4.63;;;;;;;;;;5055276;28;20062;-64
2022/04/06 05:51:05;;;;;;;7.45;2.97;;;;;;;;;;5061374;28;20171;-63
2022/04/06 05:53:31;;;;;;;15.88;4.32;;;;;;;;;;5060855;28;20131;-64
2022/04/06 05:55:58;;;;;;;13.77;4.30;;;;;;;;;;5059880;28;20132;-63
2022/04/06 05:58:24;;;;;;;14.15;4.47;;;;;;;;;;5061384;28;20468;-64
2022/04/06 06:00:57;;;;;;;11.98;4.60;;;;;;;;;;5059319;28;20163;-64
2022/04/06 06:03:23;;;;;;;12.10;4.72;;;;;;;;;;5060744;28;20060;-64
2022/04/06 06:05:50;;;;;;;18.02;4.30;;;;;;;;;;5062145;28;20049;-64
2022/04/06 06:08:21;;;;;;;12.45;4.30;;;;;;;;;;5059779;28;20143;-64
2022/04/06 06:10:47;;;;;;;18.60;5.18;;;;;;;;;;5057143;28;20151;-64
2022/04/06 06:13:14;;;;;;;11.95;4.40;;;;;;;;;;5059366;28;20088;-64
2022/04/06 06:15:41;;;;;;;11.68;4.32;;;;;;;;;;5060956;28;20072;-64
2022/04/06 06:18:08;;;;;;;14.00;4.75;;;;;;;;;;5063696;28;20103;-64
2022/04/06 06:20:35;;;;;;;;;;;;;;;;;;5060169;28;20095;-64
2022/04/06 06:23:02;;;;;;;20.23;5.38;;;;;;;;;;5057048;28;20027;-64
2022/04/06 06:25:28;;;;;;;19.40;4.37;;;;;;;;;;5058631;28;20058;-65
2022/04/06 06:27:55;;;;;;;9.57;3.93;;;;;;;;;;5055277;28;20132;-64
2022/04/06 06:30:24;;;;;;;16.77;4.63;;;;;;;;;;5062663;28;20456;-65
2022/04/06 06:32:50;;;;;;;9.13;4.13;;;;;;;;;;5057958;28;20647;-65
2022/04/06 06:35:19;;;;;;;16.55;4.35;;;;;;;;;;5058805;28;20131;-65
2022/04/06 06:37:50;;;;;;;12.80;4.45;;;;;;;;;;5057792;28;20057;-65
2022/04/06 06:40:18;;;;;;;9.15;4.22;;;;;;;;;;5058420;28;20140;-65
2022/04/06 06:42:45;;;;;;;13.18;4.72;;;;;;;;;;5060050;28;20131;-65
2022/04/06 06:45:11;;;;;;;10.93;3.25;;;;;;;;;;5059079;28;20076;-65
2022/04/06 06:47:40;;;;;;;14.68;4.18;;;;;;;;;;5058251;28;20057;-66
2022/04/06 06:50:11;;;;;;;13.98;4.30;;;;;;;;;;5042309;28;20139;-66
2022/04/06 06:52:37;;;;;;;9.75;3.70;;;;;;;;;;5038730;28;20144;-66
2022/04/06 06:55:12;;;;;;;16.00;4.18;;;;;;;;;;5038320;28;20080;-67
2022/04/06 06:57:41;;;;;;;8.13;4.10;;;;;;;;;;5040990;28;20469;-68
2022/04/06 07:00:11;;;;;;;12.15;4.25;;;;;;;;;;5043441;28;20477;-67
2022/04/06 07:02:40;;;;;;;17.75;4.10;;;;;;;;;;5037104;28;20422;-68
2022/04/06 07:05:08;;;;;;;11.38;4.05;;;;;;;;;;5037885;28;20076;-68
2022/04/06 07:07:46;;;;;;;19.27;3.97;;;;;;;;;;5037415;28;20071;-68
2022/04/06 07:10:13;;;;;;;18.17;4.93;;;;;;;;;;5037165;28;20088;-68
2022/04/06 07:12:40;;;;;;;21.48;5.00;;;;;;;;;;5038375;28;20136;-68
2022/04/06 07:15:06;;;;;;;17.33;5.15;;;;;;;;;;5038317;28;20049;-69
2022/04/06 07:17:33;;;;;;;19.63;5.30;;;;;;;;;;5042847;28;20091;-68
2022/04/06 07:19:59;;;;;;;16.95;5.22;;;;;;;;;;5035151;28;20052;-68
2022/04/06 07:22:26;;;;;;;28.95;5.55;;;;;;;;;;5037364;28;20144;-68
2022/04/06 07:24:52;;;;;;;21.60;5.57;;;;;;;;;;5036087;28;20133;-68
2022/04/06 07:27:19;;;;;;;22.77;4.88;;;;;;;;;;5040055;28;20491;-69
2022/04/06 07:29:45;;;;;;;18.88;4.93;;;;;;;;;;5036273;28;20539;-69
2022/04/06 07:32:14;;;;;;;25.38;5.63;;;;;;;;;;5035861;28;20136;-69
2022/04/06 07:34:40;;;;;;;33.60;6.15;;;;;;;;;;5036256;28;20556;-68
2022/04/06 07:37:07;;;;;;;40.90;6.57;;;;;;;;;;5036467;28;20064;-69
2022/04/06 07:39:33;;;;;;;28.75;6.53;;;;;;;;;;5036569;28;20637;-69
2022/04/06 07:42:00;;;;;;;23.83;6.30;;;;;;;;;;5037565;28;20044;-69
2022/04/06 07:44:26;;;;;;;30.70;6.30;;;;;;;;;;5036198;28;20091;-69
2022/04/06 07:46:53;;;;;;;29.85;6.60;;;;;;;;;;5035025;28;20140;-69
2022/04/06 07:49:19;;;;;;;26.10;6.05;;;;;;;;;;5041834;28;20063;-69
2022/04/06 07:51:47;;;;;;;34.05;6.00;;;;;;;;;;5057022;28;20131;-70
2022/04/06 07:54:14;;;;;;;23.67;6.25;;;;;;;;;;5057105;28;20128;-70
2022/04/06 07:56:42;;;;;;;36.63;6.20;;;;;;;;;;5057477;28;20723;-69
2022/04/06 07:59:08;;;;;;;25.83;6.75;;;;;;;;;;5058238;28;20048;-69
2022/04/06 08:01:35;;;;;;;26.58;5.57;;;;;;;;;;5060676;28;20044;-69
2022/04/06 08:04:02;;;;;;;26.97;5.60;;;;;;;;;;5057278;28;20053;-69
2022/04/06 08:06:29;;;;;;;24.60;5.20;;;;;;;;;;5057642;28;20135;-70
2022/04/06 08:08:55;;;;;;;32.80;6.15;;;;;;;;;;5055540;28;20165;-69
2022/04/06 08:11:24;;;;;;;31.33;6.50;;;;;;;;;;5057735;28;20088;-70
2022/04/06 08:13:51;;;;;;;20.80;5.60;;;;;;;;;;5056590;28;20056;-70
2022/04/06 08:16:18;;;;;;;32.05;5.97;;;;;;;;;;5056917;28;20093;-70
2022/04/06 08:18:45;;;;;;;29.98;6.07;;;;;;;;;;5054605;28;20080;-70
2022/04/06 08:21:12;;;;;;;34.58;5.93;;;;;;;;;;5054022;28;20041;-70
2022/04/06 08:23:39;;;;;;;27.95;6.15;;;;;;;;;;5054118;28;20136;-70
2022/04/06 08:26:05;;;;;;;27.90;5.75;;;;;;;;;;5055747;28;20140;-70
2022/04/06 08:28:32;;;;;;;22.35;5.63;;;;;;;;;;5055803;28;20102;-71
2022/04/06 08:30:59;;;;;;;23.13;5.25;;;;;;;;;;5056137;28;20124;-71
2022/04/06 08:33:26;;;;;;;21.55;4.65;;;;;;;;;;5056306;28;20048;-70
2022/04/06 08:35:53;;;;;;;20.63;4.93;;;;;;;;;;5055670;28;20055;-70
2022/04/06 08:38:20;;;;;;;28.10;4.93;;;;;;;;;;5037503;28;20179;-70
2022/04/06 08:40:48;;;;;;;22.88;4.88;;;;;;;;;;5056272;28;20128;-71
2022/04/06 08:43:17;;;;;;;24.48;4.60;;;;;;;;;;5056566;28;20492;-70
2022/04/06 08:45:46;;;;;;;21.23;5.10;;;;;;;;;;5058653;28;20053;-70
2022/04/06 08:48:13;;;;;;;16.30;5.13;;;;;;;;;;5060108;28;20123;-70
2022/04/06 08:50:41;;;;;;;24.35;4.18;;;;;;;;;;5041360;28;20531;-70
2022/04/06 08:53:08;;;;;;;21.25;5.07;;;;;;;;;;5035435;28;20111;-71
2022/04/06 08:55:35;;;;;;;22.50;5.40;;;;;;;;;;5042545;28;20148;-70
2022/04/06 08:58:01;;;;;;;15.70;4.63;;;;;;;;;;5042363;28;20405;-70
2022/04/06 09:00:29;;;;;;;;;;;;;;;;;;5041803;28;20528;-70
2022/04/06 09:02:55;;;;;;;20.70;4.18;;;;;;;;;;5044892;28;19964;-70
2022/04/06 09:05:27;;;;;;;16.10;4.53;;;;;;;;;;5043307;28;20072;-69
2022/04/06 09:07:58;;;;;;;17.00;4.05;;;;;;;;;;5038963;28;20795;-70
2022/04/06 09:10:28;;;;;;;19.13;4.55;;;;;;;;;;5027185;28;20088;-71
2022/04/06 09:13:07;;;;;;;22.42;4.35;;;;;;;;;;5041297;28;20136;-70
2022/04/06 09:15:35;;;;;;;20.45;4.57;;;;;;;;;;5038914;28;20048;-70
2022/04/06 09:18:02;;;;;;;23.60;4.63;;;;;;;;;;5043034;28;20460;-70
2022/04/06 09:20:29;;;;;;;14.20;3.88;;;;;;;;;;5039283;28;20102;-70
2022/04/06 09:23:01;;;;;;;33.75;5.45;;;;;;;;;;5044402;28;20140;-70
2022/04/06 09:25:38;;;;;;;17.88;4.32;;;;;;;;;;5042564;28;20479;-70
2022/04/06 09:28:11;;;;;;;18.88;4.10;;;;;;;;;;5038959;28;20904;-70
2022/04/06 09:30:40;;;;;;;15.35;4.85;;;;;;;;;;5042518;28;20157;-70
2022/04/06 09:33:18;;;;;;;18.73;4.10;;;;;;;;;;5040152;28;20112;-70
2022/04/06 09:35:51;;;;;;;13.20;4.07;;;;;;;;;;5042544;28;20140;-70
2022/04/06 09:38:22;;;;;;;21.77;4.05;;;;;;;;;;5041916;28;20128;-70
2022/04/06 09:40:49;;;;;;;14.07;4.05;;;;;;;;;;5038797;28;20107;-70
2022/04/06 09:43:26;;;;;;;9.77;3.80;;;;;;;;;;5037472;28;20479;-70
2022/04/06 09:48:51;;;;;;;15.18;3.60;;;;;;;;;;5038465;28;20051;-70
2022/04/06 09:51:18;;;;;;;12.27;3.80;;;;;;;;;;5057494;28;20132;-70
2022/04/06 09:53:48;;;;;;;16.25;4.20;;;;;;;;;;5059487;28;20132;-70
2022/04/06 09:56:15;;;;;;;15.38;3.88;;;;;;;;;;5061514;28;20147;-70
2022/04/06 09:58:43;;;;;;;18.73;3.95;;;;;;;;;;5063810;28;20080;-70
2022/04/06 10:01:17;;;;;;;11.25;3.33;;;;;;;;;;5059862;28;20076;-69
2022/04/06 10:03:44;;;;;;;;;;;;;;;;;;5061416;28;20052;-70
2022/04/06 10:06:11;;;;;;;12.52;3.83;;;;;;;;;;5059620;28;19974;-70
2022/04/06 10:08:41;;;;;;;7.70;2.40;;;;;;;;;;5059363;28;20470;-70
2022/04/06 10:11:08;;;;;;;13.30;3.25;;;;;;;;;;5060107;28;20139;-69
2022/04/06 10:13:34;;;;;;;9.10;3.17;;;;;;;;;;5058551;28;20084;-70
2022/04/06 10:16:20;;;;;;;7.78;2.97;;;;;;;;;;5058693;28;20454;-70
2022/04/06 10:18:48;;;;;;;7.72;2.42;;;;;;;;;;5062391;28;20065;-70
2022/04/06 10:21:18;;;;;;;9.38;3.05;;;;;;;;;;5057954;28;20091;-69
2022/04/06 10:24:03;;;;;;;5.43;2.47;;;;;;;;;;5056999;28;20140;-69
2022/04/06 10:26:36;;;;;;;6.13;2.40;;;;;;;;;;5058062;28;20041;-70
2022/04/06 10:29:06;;;;;;;8.23;2.15;;;;;;;;;;5061162;28;20056;-69
2022/04/06 10:31:33;;;;;;;10.40;2.75;;;;;;;;;;5058679;28;20136;-70
2022/04/06 10:34:17;;;;;;;12.40;2.53;;;;;;;;;;5060632;28;20468;-69
2022/04/06 10:37:05;;;;;;;5.70;2.20;;;;;;;;;;5061343;28;20110;-69
2022/04/06 10:39:31;;;;;;;11.75;2.45;;;;;;;;;;5060813;28;20079;-69
2022/04/06 10:42:12;;;;;;;8.90;2.50;;;;;;;;;;5061673;28;20597;-69
2022/04/06 10:44:39;;;;;;;4.75;1.92;;;;;;;;;;5059625;28;20531;-69
2022/04/06 10:47:10;;;;;;;9.50;2.58;;;;;;;;;;5058887;28;20523;-69
2022/04/06 10:49:36;;;;;;;4.65;2.60;;;;;;;;;;5051841;28;20080;-68
2022/04/06 10:52:19;;;;;;;7.05;2.20;;;;;;;;;;5039042;28;20076;-71
2022/04/06 10:54:46;;;;;;;8.43;2.00;;;;;;;;;;5041090;28;20128;-71
2022/04/06 10:57:12;;;;;;;11.43;2.63;;;;;;;;;;5036430;28;20049;-72
2022/04/06 10:59:39;;;;;;;8.80;2.33;;;;;;;;;;5036833;28;20584;-73
2022/04/06 11:02:19;;;;;;;12.30;2.15;;;;;;;;;;5040008;28;20084;-73
2022/04/06 11:04:47;;;;;;;3.22;1.67;;;;;;;;;;5036462;28;20560;-72
2022/04/06 11:10:06;;;;;;;4.90;1.73;;;;;;;;;;5036934;28;20056;-71
2022/04/06 11:10:12;;;;;;;6.30;2.03;;;;;;;;;;5036435;28;20555;-71
2022/04/06 11:12:55;;;;;;;7.35;1.70;;;;;;;;;;5037227;28;20136;-71
2022/04/06 11:15:31;;;;;;;3.17;1.70;;;;;;;;;;5036506;28;20060;-71
2022/04/06 11:18:00;;;;;;;9.02;1.90;;;;;;;;;;5037096;28;20136;-70
2022/04/06 11:20:30;;;;;;;3.65;1.75;;;;;;;;;;5036421;28;20053;-69
2022/04/06 11:22:58;;;;;;;6.43;1.80;;;;;;;;;;5037534;28;20095;-69
2022/04/06 11:25:29;;;;;;;5.28;1.80;;;;;;;;;;5035403;28;20695;-69
2022/04/06 11:28:05;;;;;;;3.40;1.42;;;;;;;;;;5036315;28;20608;-70
2022/04/06 11:30:34;;;;;;;3.53;1.67;;;;;;;;;;5036242;28;20048;-70
2022/04/06 11:33:01;;;;;;;1.70;1.38;;;;;;;;;;5037893;28;20053;-69
2022/04/06 11:35:33;;;;;;;4.65;1.17;;;;;;;;;;5036868;28;20047;-69
2022/04/06 11:38:02;;;;;;;2.40;1.30;;;;;;;;;;5035904;28;20055;-69
2022/04/06 11:40:29;;;;;;;3.85;1.35;;;;;;;;;;5035909;28;20049;-69
2022/04/06 11:42:56;;;;;;;1.47;0.83;;;;;;;;;;5036338;28;20139;-69
2022/04/06 11:45:51;;;;;;;2.28;1.60;;;;;;;;;;5037232;28;20057;-69
2022/04/06 11:48:18;;;;;;;3.10;1.50;;;;;;;;;;5037905;28;20048;-68
2022/04/06 11:50:45;;;;;;;6.83;1.60;;;;;;;;;;5056385;28;20601;-68
2022/04/06 11:53:15;;;;;;;0.73;0.73;;;;;;;;;;5059328;28;20049;-69
2022/04/06 11:55:44;;;;;;;3.30;1.10;;;;;;;;;;5054959;28;20143;-68
2022/04/06 11:58:26;;;;;;;4.70;0.80;;;;;;;;;;5053335;28;20049;-69
2022/04/06 12:00:57;;;;;;;3.28;0.90;;;;;;;;;;5055826;28;20052;-69
2022/04/06 12:03:27;;;;;;;1.83;0.90;;;;;;;;;;5056165;28;20129;-69
2022/04/06 12:05:54;;;;;;;1.77;0.70;;;;;;;;;;5054973;28;20055;-69
2022/04/06 12:08:21;;;;;;;2.97;1.10;;;;;;;;;;5056060;28;20147;-68
2022/04/06 12:11:06;;;;;;;5.95;0.90;;;;;;;;;;5055745;28;20063;-68
2022/04/06 12:13:37;;;;;;;0.80;0.80;;;;;;;;;;5054327;28;20136;-69
2022/04/06 12:16:04;;;;;;;5.47;1.52;;;;;;;;;;5053768;28;20048;-69
2022/04/06 12:18:32;;;;;;;0.52;0.43;;;;;;;;;;5053773;28;20123;-69
2022/04/06 12:20:59;;;;;;;6.15;0.75;;;;;;;;;;5054930;28;20187;-68
2022/04/06 12:23:26;;;;;;;4.57;0.90;;;;;;;;;;5054687;28;20045;-69
2022/04/06 12:25:56;;;;;;;;;;;;;;;;;;5055538;28;20107;-69
2022/04/06 12:28:25;;;;;;;2.88;1.95;;;;;;;;;;5055905;28;20385;-69
2022/04/06 12:30:57;;;;;;;3.80;0.93;;;;;;;;;;5057265;28;20052;-69
2022/04/06 12:33:42;;;;;;;1.27;1.08;;;;;;;;;;5059143;28;20050;-68
2022/04/06 12:36:25;;;;;;;3.42;0.93;;;;;;;;;;5058218;28;20048;-68
2022/04/06 12:38:57;;;;;;;1.77;1.00;;;;;;;;;;5058411;28;20079;-68
2022/04/06 12:41:25;;;;;;;3.15;1.13;;;;;;;;;;5059237;28;20052;-68
2022/04/06 12:43:52;;;;;;;4.40;1.13;;;;;;;;;;5057434;28;20052;-68
2022/04/06 12:46:38;;;;;;;4.43;1.40;;;;;;;;;;5058272;28;20044;-67
2022/04/06 12:49:24;;;;;;;7.30;1.23;;;;;;;;;;5059726;28;20052;-68
2022/04/06 12:52:09;;;;;;;1.23;0.98;;;;;;;;;;5060524;28;20135;-67
2022/04/06 12:54:39;;;;;;;2.80;1.33;;;;;;;;;;5059293;28;20963;-68
2022/04/06 12:57:06;;;;;;;3.75;1.10;;;;;;;;;;5059741;28;20144;-67
2022/04/06 12:59:42;;;;;;;1.80;1.00;;;;;;;;;;5061229;28;20559;-68
2022/04/06 13:02:19;;;;;;;3.40;1.02;;;;;;;;;;5060133;28;20049;-68
2022/04/06 13:04:46;;;;;;;4.40;1.20;;;;;;;;;;5060621;28;20064;-68
2022/04/06 13:07:13;;;;;;;1.25;1.15;;;;;;;;;;5062591;28;20099;-68
2022/04/06 13:10:00;;;;;;;1.90;0.77;;;;;;;;;;5060644;28;20055;-68
2022/04/06 13:12:29;;;;;;;2.83;1.10;;;;;;;;;;5057905;28;20606;-68
2022/04/06 13:14:56;;;;;;;3.00;1.63;;;;;;;;;;5059884;28;20098;-68
2022/04/06 13:17:23;;;;;;;1.40;1.13;;;;;;;;;;5058243;28;20135;-68
2022/04/06 13:19:50;;;;;;;2.50;1.58;;;;;;;;;;5059420;28;20048;-69
2022/04/06 13:22:17;;;;;;;2.67;1.40;;;;;;;;;;5059560;28;20047;-69
2022/04/06 13:24:44;;;;;;;4.30;2.00;;;;;;;;;;5058286;28;20044;-68
2022/04/06 13:27:13;;;;;;;1.98;1.40;;;;;;;;;;5058237;28;20474;-69
2022/04/06 13:29:40;;;;;;;4.47;1.80;;;;;;;;;;5059054;28;20149;-68
2022/04/06 13:32:07;;;;;;;4.97;1.67;;;;;;;;;;5058768;28;20849;-67
2022/04/06 13:34:34;;;;;;;2.75;1.70;;;;;;;;;;5058442;28;20072;-68
2022/04/06 13:37:00;;;;;;;3.00;1.83;;;;;;;;;;5059986;28;20147;-67
2022/04/06 13:39:27;;;;;;;2.22;1.60;;;;;;;;;;5058315;28;20791;-68
2022/04/06 13:41:55;;;;;;;1.63;1.13;;;;;;;;;;5058489;28;20127;-67
2022/04/06 13:44:24;;;;;;;;;;;;;;;;;;5061191;28;20052;-68
2022/04/06 13:46:52;;;;;;;3.28;1.45;;;;;;;;;;5062127;28;19975;-68
2022/04/06 13:49:25;;;;;;;1.65;1.20;;;;;;;;;;5049706;28;20061;-68
2022/04/06 13:51:54;;;;;;;2.60;1.38;;;;;;;;;;5018057;28;20512;-69
2022/04/06 13:54:22;;;;;;;1.83;0.82;;;;;;;;;;5037383;28;20942;-68
2022/04/06 13:56:48;;;;;;;5.35;1.35;;;;;;;;;;5038608;28;20049;-69
2022/04/06 13:59:17;;;;;;;1.17;1.08;;;;;;;;;;5037431;28;20064;-69
2022/04/06 14:01:43;;;;;;;2.42;1.20;;;;;;;;;;5038762;28;20180;-69
2022/04/06 14:04:10;;;;;;;2.80;1.08;;;;;;;;;;5038010;28;20049;-69
2022/04/06 14:06:37;;;;;;;2.20;1.30;;;;;;;;;;5038305;28;20164;-69
2022/04/06 14:09:05;;;;;;;3.13;1.52;;;;;;;;;;5037949;28;20398;-68
2022/04/06 14:11:32;;;;;;;3.42;1.42;;;;;;;;;;5038706;28;20572;-69
2022/04/06 14:14:05;;;;;;;2.05;1.30;;;;;;;;;;5037565;28;20052;-69
2022/04/06 14:16:31;;;;;;;1.20;1.10;;;;;;;;;;5037868;28;20143;-69
2022/04/06 14:18:59;;;;;;;2.60;1.53;;;;;;;;;;5037561;28;20306;-68
2022/04/06 14:21:28;;;;;;;0.63;0.63;;;;;;;;;;5043053;28;20139;-69
2022/04/06 14:23:55;;;;;;;1.80;1.33;;;;;;;;;;5041438;28;20049;-69
2022/04/06 14:26:22;;;;;;;3.95;1.40;;;;;;;;;;5036440;28;20513;-70
2022/04/06 14:28:55;;;;;;;3.72;1.20;;;;;;;;;;5038839;28;20091;-69
2022/04/06 14:31:22;;;;;;;2.57;1.23;;;;;;;;;;5036027;28;20524;-69
2022/04/06 14:33:49;;;;;;;3.88;1.45;;;;;;;;;;5040344;28;20060;-69
2022/04/06 14:36:22;;;;;;;1.60;1.00;;;;;;;;;;5038434;28;20528;-69
2022/04/06 14:38:49;;;;;;;3.33;1.30;;;;;;;;;;5041515;28;20580;-69
2022/04/06 14:41:16;;;;;;;1.45;1.30;;;;;;;;;;5039043;28;20093;-69
2022/04/06 14:43:49;;;;;;;2.80;1.55;;;;;;;;;;5038369;28;20161;-68
2022/04/06 14:46:20;;;;;;;2.38;1.35;;;;;;;;;;5037569;28;20572;-68
2022/04/06 14:48:47;;;;;;;1.70;1.40;;;;;;;;;;5039082;28;20038;-68
2022/04/06 14:51:14;;;;;;;3.33;1.48;;;;;;;;;;5057174;28;20084;-68
2022/04/06 14:53:46;;;;;;;2.42;1.30;;;;;;;;;;5059925;28;20132;-69
2022/04/06 14:56:13;;;;;;;2.10;0.95;;;;;;;;;;5060363;28;20088;-69